createdAt,value
2018-04-29T00:00:18.119Z,12.70
2018-04-29T00:02:45.790Z,12.70
2018-04-29T00:05:13.500Z,12.90
2018-04-29T00:07:41.846Z,12.80
2018-04-29T00:10:09.629Z,12.70
2018-04-29T00:12:37.274Z,12.60
2018-04-29T00:15:05.720Z,12.20
2018-04-29T00:17:33.384Z,12.20
2018-04-29T00:20:01.099Z,12.20
2018-04-29T00:22:29.492Z,12.10
2018-04-29T00:24:57.196Z,12.00
2018-04-29T00:27:24.991Z,12.00
2018-04-29T00:29:53.437Z,11.90
2018-04-29T00:32:21.126Z,11.90
2018-04-29T00:34:48.789Z,11.90
2018-04-29T00:37:16.492Z,12.10
2018-04-29T00:39:44.218Z,12.20
2018-04-29T00:42:12.742Z,12.30
2018-04-29T00:44:40.378Z,12.30
2018-04-29T00:47:09.958Z,12.30
2018-04-29T00:49:37.676Z,12.30
2018-04-29T00:52:07.388Z,12.20
2018-04-29T00:54:35.057Z,12.30
2018-04-29T00:57:02.724Z,12.40
2018-04-29T00:59:30.458Z,12.50
2018-04-29T01:01:58.854Z,12.70
2018-04-29T01:04:26.650Z,12.70
2018-04-29T01:06:54.229Z,12.70
2018-04-29T01:09:21.961Z,12.70
2018-04-29T01:11:49.939Z,12.80
2018-04-29T01:14:19.150Z,12.90
2018-04-29T01:16:46.948Z,12.80
2018-04-29T01:19:15.361Z,12.80
2018-04-29T01:21:43.083Z,12.80
2018-04-29T01:24:10.738Z,12.90
2018-04-29T01:26:38.350Z,12.80
2018-04-29T01:29:06.349Z,12.70
2018-04-29T01:31:33.960Z,12.70
2018-04-29T01:34:02.350Z,12.70
2018-04-29T01:36:30.019Z,12.70
2018-04-29T01:38:57.658Z,12.80
2018-04-29T01:41:25.582Z,12.90
2018-04-29T01:43:53.790Z,12.90
2018-04-29T01:46:22.322Z,13.00
2018-04-29T01:48:50.151Z,13.00
2018-04-29T01:51:17.886Z,13.00
2018-04-29T01:53:45.914Z,13.00
2018-04-29T01:56:14.210Z,13.00
2018-04-29T01:58:41.872Z,13.10
2018-04-29T02:01:09.497Z,13.20
2018-04-29T02:03:37.097Z,13.20
2018-04-29T02:06:04.723Z,13.20
2018-04-29T02:08:32.406Z,13.20
2018-04-29T02:11:01.077Z,13.00
2018-04-29T02:13:29.705Z,13.00
2018-04-29T02:15:57.334Z,13.10
2018-04-29T02:18:25.007Z,13.20
2018-04-29T02:20:52.740Z,13.20
2018-04-29T02:23:21.186Z,13.10
2018-04-29T02:25:49.124Z,13.10
2018-04-29T02:28:17.833Z,13.00
2018-04-29T02:30:45.470Z,13.00
2018-04-29T02:33:13.887Z,13.00
2018-04-29T02:35:42.268Z,13.00
2018-04-29T02:38:11.377Z,12.90
2018-04-29T02:40:39.039Z,13.00
2018-04-29T02:43:06.683Z,13.00
2018-04-29T02:45:34.417Z,13.00
2018-04-29T02:48:02.397Z,13.00
2018-04-29T02:50:29.980Z,12.80
2018-04-29T02:52:57.713Z,12.90
2018-04-29T02:55:25.436Z,13.00
2018-04-29T02:57:53.228Z,13.00
2018-04-29T03:00:21.664Z,13.00
2018-04-29T03:02:49.413Z,13.00
2018-04-29T03:05:18.167Z,12.90
2018-04-29T03:07:45.789Z,12.90
2018-04-29T03:10:13.501Z,12.90
2018-04-29T03:12:41.159Z,13.00
2018-04-29T03:15:08.771Z,12.90
2018-04-29T03:17:36.683Z,13.00
2018-04-29T03:20:05.179Z,12.60
2018-04-29T03:22:33.956Z,12.60
2018-04-29T03:25:01.608Z,12.60
2018-04-29T03:27:29.424Z,12.50
2018-04-29T03:29:57.849Z,12.50
2018-04-29T03:32:25.606Z,12.50
2018-04-29T03:34:53.290Z,12.50
2018-04-29T03:37:20.943Z,12.50
2018-04-29T03:39:49.467Z,12.50
2018-04-29T03:42:17.917Z,12.30
2018-04-29T03:44:46.415Z,12.30
2018-04-29T03:47:14.114Z,12.30
2018-04-29T03:49:41.802Z,12.20
2018-04-29T03:52:10.276Z,11.90
2018-04-29T03:54:37.886Z,12.00
2018-04-29T03:57:17.336Z,11.80
2018-04-29T03:59:57.558Z,11.60
2018-04-29T04:02:38.122Z,11.70
2018-04-29T04:05:06.455Z,11.70
2018-04-29T04:07:34.257Z,11.80
2018-04-29T04:10:02.730Z,11.90
2018-04-29T04:12:30.390Z,11.90
2018-04-29T04:14:58.111Z,12.00
2018-04-29T04:17:25.685Z,12.00
2018-04-29T04:19:53.335Z,12.00
2018-04-29T04:22:20.942Z,12.00
2018-04-29T04:24:49.522Z,12.10
2018-04-29T04:27:17.194Z,12.10
2018-04-29T04:29:44.844Z,12.10
2018-04-29T04:32:12.559Z,12.10
2018-04-29T04:34:40.194Z,12.10
2018-04-29T04:37:07.900Z,12.20
2018-04-29T04:39:35.511Z,12.20
2018-04-29T04:42:03.126Z,12.20
2018-04-29T04:44:30.750Z,12.20
2018-04-29T04:47:02.819Z,12.20
2018-04-29T04:49:31.748Z,12.10
2018-04-29T04:51:59.459Z,12.10
2018-04-29T04:54:27.005Z,12.10
2018-04-29T04:56:54.609Z,11.90
2018-04-29T04:59:22.367Z,11.60
2018-04-29T05:01:50.052Z,11.40
2018-04-29T05:04:18.556Z,11.50
2018-04-29T05:06:46.180Z,11.50
2018-04-29T05:09:15.459Z,11.90
2018-04-29T05:11:43.184Z,11.80
2018-04-29T05:14:10.883Z,11.90
2018-04-29T05:16:38.522Z,11.90
2018-04-29T05:19:06.143Z,12.00
2018-04-29T05:21:33.995Z,12.00
2018-04-29T05:24:02.370Z,12.20
2018-04-29T05:26:30.671Z,12.30
2018-04-29T05:28:58.358Z,12.30
2018-04-29T05:31:26.928Z,12.40
2018-04-29T05:33:55.576Z,12.50
2018-04-29T05:36:23.389Z,12.50
2018-04-29T05:38:51.124Z,12.60
2018-04-29T05:41:18.974Z,12.70
2018-04-29T05:43:47.615Z,12.80
2018-04-29T05:46:15.210Z,12.80
2018-04-29T05:48:42.910Z,12.70
2018-04-29T05:51:11.076Z,12.80
2018-04-29T05:53:38.785Z,12.80
2018-04-29T05:56:06.482Z,13.00
2018-04-29T05:58:35.202Z,13.20
2018-04-29T06:01:02.832Z,13.10
2018-04-29T06:03:30.408Z,13.20
2018-04-29T06:05:58.612Z,13.30
2018-04-29T06:08:27.456Z,13.50
2018-04-29T06:10:56.176Z,13.70
2018-04-29T06:13:23.875Z,13.70
2018-04-29T06:15:51.710Z,13.80
2018-04-29T06:18:19.502Z,14.00
2018-04-29T06:20:47.406Z,14.10
2018-04-29T06:23:15.201Z,14.20
2018-04-29T06:25:42.915Z,14.20
2018-04-29T06:28:11.573Z,14.40
2018-04-29T06:30:39.410Z,14.40
2018-04-29T06:33:07.021Z,14.50
2018-04-29T06:35:34.843Z,14.60
2018-04-29T06:38:02.609Z,14.70
2018-04-29T06:40:30.979Z,14.70
2018-04-29T06:42:58.682Z,14.80
2018-04-29T06:45:26.493Z,14.90
2018-04-29T06:47:54.134Z,15.00
2018-04-29T06:50:22.228Z,15.20
2018-04-29T06:52:50.028Z,15.30
2018-04-29T06:55:17.781Z,15.40
2018-04-29T06:57:45.538Z,15.60
2018-04-29T07:00:13.138Z,15.70
2018-04-29T07:02:40.864Z,15.90
2018-04-29T07:05:09.032Z,16.00
2018-04-29T07:07:36.866Z,16.10
2018-04-29T07:10:04.665Z,16.20
2018-04-29T07:12:32.262Z,16.20
2018-04-29T07:14:59.990Z,16.30
2018-04-29T07:17:27.738Z,16.60
2018-04-29T07:19:56.812Z,16.80
2018-04-29T07:22:25.307Z,17.20
2018-04-29T07:24:53.102Z,17.10
2018-04-29T07:27:21.757Z,17.30
2018-04-29T07:29:50.674Z,17.40
2018-04-29T07:32:18.445Z,17.40
2018-04-29T07:34:46.027Z,17.70
2018-04-29T07:37:22.296Z,17.90
2018-04-29T07:39:50.113Z,18.20
2018-04-29T07:42:17.668Z,18.10
2018-04-29T07:44:45.445Z,18.00
2018-04-29T07:47:14.152Z,18.10
2018-04-29T07:49:42.101Z,18.50
2018-04-29T07:52:19.189Z,18.80
2018-04-29T07:54:47.105Z,19.00
2018-04-29T07:57:15.561Z,19.50
2018-04-29T07:59:43.128Z,19.40
2018-04-29T08:02:13.180Z,19.70
2018-04-29T08:04:47.747Z,20.10
2018-04-29T08:07:15.798Z,20.00
2018-04-29T08:09:44.393Z,20.30
2018-04-29T08:12:12.007Z,20.50
2018-04-29T08:14:40.408Z,21.10
2018-04-29T08:17:15.574Z,21.10
2018-04-29T08:19:43.513Z,21.30
2018-04-29T08:22:11.126Z,21.60
2018-04-29T08:24:39.625Z,22.20
2018-04-29T08:27:07.252Z,22.10
2018-04-29T08:29:34.882Z,22.30
2018-04-29T08:32:02.849Z,22.60
2018-04-29T08:34:30.765Z,21.60
2018-04-29T08:36:59.178Z,22.10
2018-04-29T08:39:27.799Z,22.20
2018-04-29T08:41:55.786Z,22.10
2018-04-29T08:44:23.594Z,22.80
2018-04-29T08:46:52.220Z,23.70
2018-04-29T08:52:26.116Z,23.80
2018-04-29T08:54:54.679Z,24.00
2018-04-29T08:57:22.392Z,24.00
2018-04-29T08:59:50.058Z,24.30
2018-04-29T09:02:17.831Z,24.70
2018-04-29T09:04:45.819Z,24.40
2018-04-29T09:07:15.003Z,24.90
2018-04-29T09:09:42.683Z,24.90
2018-04-29T09:12:10.693Z,25.20
2018-04-29T09:14:39.022Z,25.60
2018-04-29T09:17:07.097Z,25.60
2018-04-29T09:19:34.781Z,25.40
2018-04-29T09:22:02.367Z,25.70
2018-04-29T09:24:29.963Z,26.20
2018-04-29T09:26:57.621Z,26.00
2018-04-29T09:29:26.054Z,26.00
2018-04-29T09:31:53.751Z,26.30
2018-04-29T09:34:21.424Z,26.40
2018-04-29T09:36:49.673Z,26.70
2018-04-29T09:39:17.822Z,26.70
2018-04-29T09:41:48.936Z,26.50
2018-04-29T09:44:16.956Z,26.50
2018-04-29T09:46:45.334Z,26.70
2018-04-29T09:49:13.969Z,26.80
2018-04-29T09:51:41.804Z,26.80
2018-04-29T09:54:09.431Z,26.40
2018-04-29T09:56:37.241Z,26.30
2018-04-29T09:59:05.581Z,26.40
2018-04-29T10:01:36.129Z,27.10
2018-04-29T10:04:03.827Z,27.10
2018-04-29T10:06:31.439Z,27.20
2018-04-29T10:09:00.006Z,27.30
2018-04-29T10:11:28.478Z,27.30
2018-04-29T10:13:56.220Z,27.40
2018-04-29T10:16:23.842Z,27.50
2018-04-29T10:18:51.487Z,27.40
2018-04-29T10:21:19.191Z,26.50
2018-04-29T10:23:47.011Z,26.50
2018-04-29T10:26:15.337Z,27.10
2018-04-29T10:28:44.380Z,27.20
2018-04-29T10:31:13.235Z,27.40
2018-04-29T10:33:41.795Z,27.40
2018-04-29T10:36:10.221Z,26.70
2018-04-29T10:38:38.814Z,25.90
2018-04-29T10:43:44.412Z,26.00
2018-04-29T10:46:14.741Z,26.30
2018-04-29T10:48:45.055Z,27.00
2018-04-29T10:51:12.790Z,27.00
2018-04-29T10:53:45.356Z,27.20
2018-04-29T11:01:44.745Z,27.40
2018-04-29T11:09:42.199Z,26.40
2018-04-29T11:12:10.568Z,26.40
2018-04-29T11:14:38.305Z,26.30
2018-04-29T11:17:06.236Z,25.70
2018-04-29T11:19:33.910Z,25.50
2018-04-29T11:22:01.651Z,25.60
2018-04-29T11:24:29.214Z,26.20
2018-04-29T11:26:57.570Z,27.00
2018-04-29T11:29:26.000Z,26.90
2018-04-29T11:31:53.681Z,26.90
2018-04-29T11:34:21.729Z,26.80
2018-04-29T11:36:49.495Z,26.90
2018-04-29T11:39:17.158Z,26.30
2018-04-29T11:41:44.818Z,26.60
2018-04-29T11:44:12.477Z,26.50
2018-04-29T11:46:40.153Z,26.90
2018-04-29T11:49:07.906Z,27.00
2018-04-29T11:51:36.081Z,27.50
2018-04-29T11:54:03.991Z,27.20
2018-04-29T11:56:32.537Z,27.70
2018-04-29T11:59:00.204Z,27.60
2018-04-29T12:01:27.871Z,27.90
2018-04-29T12:03:55.920Z,27.90
2018-04-29T12:06:23.813Z,27.80
2018-04-29T12:08:51.654Z,28.10
2018-04-29T12:11:19.431Z,28.40
2018-04-29T12:13:47.111Z,28.50
2018-04-29T12:16:14.723Z,29.00
2018-04-29T12:18:42.284Z,28.80
2018-04-29T12:21:09.988Z,28.50
2018-04-29T12:23:38.660Z,28.00
2018-04-29T12:26:07.660Z,28.40
2018-04-29T12:28:35.260Z,28.30
2018-04-29T12:31:03.783Z,27.70
2018-04-29T12:33:31.538Z,27.70
2018-04-29T12:35:59.152Z,28.10
2018-04-29T12:38:26.784Z,28.30
2018-04-29T12:40:54.656Z,27.90
2018-04-29T12:43:22.436Z,28.10
2018-04-29T12:45:50.241Z,28.50
2018-04-29T12:48:18.137Z,28.70
2018-04-29T12:50:45.995Z,28.90
2018-04-29T12:53:13.721Z,29.20
2018-04-29T12:55:42.435Z,29.30
2018-04-29T12:58:10.175Z,29.40
2018-04-29T13:00:38.738Z,28.80
2018-04-29T13:03:07.452Z,28.40
2018-04-29T13:05:36.078Z,28.80
2018-04-29T13:08:03.835Z,28.80
2018-04-29T13:10:31.528Z,28.90
2018-04-29T13:13:00.041Z,28.60
2018-04-29T13:15:27.779Z,28.60
2018-04-29T13:17:56.163Z,29.00
2018-04-29T13:20:24.655Z,28.70
2018-04-29T13:22:53.003Z,28.30
2018-04-29T13:25:20.625Z,28.20
2018-04-29T13:27:48.213Z,27.60
2018-04-29T13:30:15.944Z,27.80
2018-04-29T13:32:43.578Z,27.70
2018-04-29T13:35:12.161Z,27.60
2018-04-29T13:37:39.836Z,27.60
2018-04-29T13:40:08.267Z,27.70
2018-04-29T13:42:35.972Z,27.60
2018-04-29T13:45:04.279Z,27.80
2018-04-29T13:47:31.878Z,27.70
2018-04-29T13:49:59.682Z,28.00
2018-04-29T13:52:27.483Z,28.00
2018-04-29T13:54:55.142Z,28.10
2018-04-29T13:57:22.940Z,28.30
2018-04-29T13:59:51.336Z,28.00
2018-04-29T14:02:20.094Z,28.00
2018-04-29T14:04:48.535Z,27.90
2018-04-29T14:07:16.359Z,28.10
2018-04-29T14:09:44.287Z,28.10
2018-04-29T14:12:12.018Z,27.90
2018-04-29T14:14:39.918Z,28.00
2018-04-29T14:17:08.038Z,28.00
2018-04-29T14:19:36.883Z,28.20
2018-04-29T14:22:04.544Z,28.10
2018-04-29T14:24:32.234Z,28.10
2018-04-29T14:27:01.736Z,27.90
2018-04-29T14:29:30.294Z,27.90
2018-04-29T14:31:58.056Z,27.90
2018-04-29T14:34:25.939Z,28.00
2018-04-29T14:36:53.480Z,27.90
2018-04-29T14:39:21.997Z,27.90
2018-04-29T14:41:50.902Z,27.90
2018-04-29T14:44:18.606Z,27.70
2018-04-29T14:46:46.225Z,27.70
2018-04-29T14:49:13.865Z,27.80
2018-04-29T14:51:41.654Z,27.80
2018-04-29T14:54:10.173Z,27.70
2018-04-29T14:56:37.901Z,27.70
2018-04-29T14:59:05.783Z,27.70
2018-04-29T15:01:34.222Z,27.50
2018-04-29T15:04:01.902Z,27.40
2018-04-29T15:06:30.522Z,27.50
2018-04-29T15:08:58.896Z,26.70
2018-04-29T15:11:27.529Z,26.50
2018-04-29T15:13:55.164Z,26.50
2018-04-29T15:16:23.045Z,26.40
2018-04-29T15:18:59.645Z,26.40
2018-04-29T15:21:27.478Z,26.50
2018-04-29T15:23:55.251Z,26.60
2018-04-29T15:26:23.021Z,26.50
2018-04-29T15:28:51.800Z,26.20
2018-04-29T15:31:19.462Z,26.20
2018-04-29T15:33:48.397Z,26.10
2018-04-29T15:36:16.894Z,26.10
2018-04-29T15:38:44.689Z,26.00
2018-04-29T15:41:12.467Z,26.00
2018-04-29T15:43:40.428Z,26.00
2018-04-29T15:46:08.362Z,26.00
2018-04-29T15:48:36.007Z,26.00
2018-04-29T15:51:04.537Z,26.20
2018-04-29T15:53:33.123Z,26.10
2018-04-29T15:56:00.878Z,26.20
2018-04-29T15:58:28.553Z,26.20
2018-04-29T16:00:56.144Z,26.30
2018-04-29T16:03:24.266Z,26.20
2018-04-29T16:05:52.691Z,26.20
2018-04-29T16:08:20.707Z,26.20
2018-04-29T16:10:49.213Z,26.30
2018-04-29T16:13:16.980Z,26.20
2018-04-29T16:15:44.600Z,26.30
2018-04-29T16:18:13.736Z,26.30
2018-04-29T16:20:41.356Z,26.30
2018-04-29T16:23:10.052Z,26.40
2018-04-29T16:25:37.888Z,26.40
2018-04-29T16:28:05.547Z,26.40
2018-04-29T16:30:34.879Z,26.40
2018-04-29T16:33:03.296Z,26.40
2018-04-29T16:35:31.184Z,26.40
2018-04-29T16:37:58.850Z,26.40
2018-04-29T16:40:27.258Z,26.30
2018-04-29T16:42:55.746Z,26.20
2018-04-29T16:45:24.225Z,26.10
2018-04-29T16:47:52.719Z,26.10
2018-04-29T16:50:20.508Z,26.00
2018-04-29T16:52:48.874Z,25.90
2018-04-29T16:55:16.513Z,25.90
2018-04-29T16:57:45.086Z,25.90
2018-04-29T17:00:13.508Z,25.80
2018-04-29T17:02:41.051Z,25.80
2018-04-29T17:05:09.349Z,25.70
2018-04-29T17:07:42.649Z,25.70
2018-04-29T17:10:10.504Z,25.70
2018-04-29T17:12:39.114Z,25.60
2018-04-29T17:15:06.876Z,25.60
2018-04-29T17:17:34.502Z,25.50
2018-04-29T17:20:02.276Z,25.50
2018-04-29T17:22:56.220Z,25.50
2018-04-29T17:25:24.841Z,25.50
2018-04-29T17:27:52.480Z,25.50
2018-04-29T17:30:20.366Z,25.50
2018-04-29T17:32:48.092Z,25.40
2018-04-29T17:35:16.321Z,25.40
2018-04-29T17:37:44.742Z,25.30
2018-04-29T17:40:12.406Z,25.20
2018-04-29T17:42:41.189Z,25.20
2018-04-29T17:45:09.038Z,25.20
2018-04-29T17:47:37.537Z,25.10
2018-04-29T17:50:06.180Z,24.90
2018-04-29T17:52:34.809Z,24.90
2018-04-29T17:55:02.455Z,24.80
2018-04-29T17:57:30.083Z,24.80
2018-04-29T17:59:58.153Z,24.80
2018-04-29T18:02:26.053Z,24.70
2018-04-29T18:04:53.657Z,24.70
2018-04-29T18:07:22.167Z,24.50
2018-04-29T18:09:50.047Z,24.50
2018-04-29T18:12:18.482Z,24.40
2018-04-29T18:14:46.162Z,24.40
2018-04-29T18:17:13.802Z,24.30
2018-04-29T18:19:42.308Z,24.10
2018-04-29T18:22:10.183Z,24.10
2018-04-29T18:24:38.042Z,24.00
2018-04-29T18:27:05.698Z,23.90
2018-04-29T18:29:33.439Z,23.90
2018-04-29T18:32:02.051Z,23.80
2018-04-29T18:34:29.792Z,23.80
2018-04-29T18:36:58.154Z,23.60
2018-04-29T18:39:26.781Z,23.50
2018-04-29T18:41:54.588Z,23.50
2018-04-29T18:44:22.969Z,23.40
2018-04-29T18:46:50.543Z,23.40
2018-04-29T18:49:18.176Z,23.30
2018-04-29T18:51:46.664Z,23.20
2018-04-29T18:54:14.324Z,23.10
2018-04-29T18:56:42.275Z,23.10
2018-04-29T18:59:09.966Z,23.10
2018-04-29T19:01:38.498Z,23.00
2018-04-29T19:04:06.049Z,23.00
2018-04-29T19:06:34.043Z,22.90
2018-04-29T19:09:01.643Z,22.80
2018-04-29T19:11:30.809Z,22.70
2018-04-29T19:13:58.451Z,22.80
2018-04-29T19:16:26.072Z,22.70
2018-04-29T19:18:53.803Z,22.50
2018-04-29T19:21:21.475Z,22.40
2018-04-29T19:23:49.212Z,22.30
2018-04-29T19:26:17.070Z,22.30
2018-04-29T19:28:46.136Z,22.20
2018-04-29T19:31:14.844Z,22.10
2018-04-29T19:33:42.766Z,22.10
2018-04-29T19:36:11.926Z,21.70
2018-04-29T19:38:39.586Z,21.70
2018-04-29T19:41:07.299Z,21.60
2018-04-29T19:43:36.622Z,21.40
2018-04-29T19:46:04.883Z,21.40
2018-04-29T19:48:33.406Z,21.40
2018-04-29T19:51:00.975Z,21.40
2018-04-29T19:53:28.671Z,21.40
2018-04-29T19:55:57.099Z,21.40
2018-04-29T19:58:25.188Z,21.40
2018-04-29T20:00:53.663Z,21.20
2018-04-29T20:03:21.391Z,21.10
2018-04-29T20:05:49.753Z,21.20
2018-04-29T20:08:18.508Z,21.10
2018-04-29T20:10:46.353Z,21.10
2018-04-29T20:13:14.205Z,21.00
2018-04-29T20:15:43.145Z,21.00
2018-04-29T20:18:11.013Z,21.10
2018-04-29T20:20:40.358Z,21.10
2018-04-29T20:23:07.949Z,21.10
2018-04-29T20:25:40.517Z,21.00
2018-04-29T20:28:09.363Z,21.00
2018-04-29T20:30:37.683Z,20.90
2018-04-29T20:33:05.293Z,20.90
2018-04-29T20:35:33.002Z,21.00
2018-04-29T20:38:00.617Z,21.00
2018-04-29T20:40:28.271Z,21.00
2018-04-29T20:42:55.982Z,21.00
2018-04-29T20:45:23.608Z,21.00
2018-04-29T20:47:52.049Z,21.00
2018-04-29T20:50:19.730Z,21.00
2018-04-29T20:52:47.343Z,21.00
2018-04-29T20:55:15.022Z,21.00
2018-04-29T20:57:43.770Z,21.00
2018-04-29T21:00:11.571Z,21.00
2018-04-29T21:02:39.300Z,21.00
2018-04-29T21:05:07.023Z,21.10
2018-04-29T21:10:36.251Z,21.00
2018-04-29T21:13:04.002Z,21.00
2018-04-29T21:15:31.657Z,21.00
2018-04-29T21:18:00.414Z,21.00
2018-04-29T21:20:29.065Z,21.00
2018-04-29T21:22:58.510Z,20.90
2018-04-29T21:25:27.161Z,20.90
2018-04-29T21:27:55.540Z,20.90
2018-04-29T21:30:24.198Z,20.90
2018-04-29T21:32:51.777Z,20.90
2018-04-29T21:35:20.213Z,20.90
2018-04-29T21:37:47.796Z,20.90
2018-04-29T21:40:15.503Z,20.80
2018-04-29T21:42:43.158Z,20.80
2018-04-29T21:45:11.670Z,20.70
2018-04-29T21:47:39.317Z,20.70
2018-04-29T21:50:07.068Z,20.70
2018-04-29T21:52:35.545Z,20.70
2018-04-29T21:55:03.541Z,20.70
2018-04-29T21:57:31.825Z,20.70
2018-04-29T22:00:00.812Z,20.60
2018-04-29T22:02:35.454Z,20.60
2018-04-29T22:05:03.066Z,20.60
2018-04-29T22:07:30.707Z,20.60
2018-04-29T22:09:58.455Z,20.60
2018-04-29T22:12:27.252Z,20.60
2018-04-29T22:14:55.823Z,20.60
2018-04-29T22:17:23.747Z,20.60
2018-04-29T22:19:51.477Z,20.50
2018-04-29T22:22:19.238Z,20.50
2018-04-29T22:24:48.148Z,20.40
2018-04-29T22:27:15.970Z,20.40
2018-04-29T22:29:43.725Z,20.40
2018-04-29T22:38:13.045Z,20.30
2018-04-29T22:44:02.344Z,20.30
2018-04-29T22:46:30.036Z,20.20
2018-04-29T22:48:58.425Z,20.20
2018-04-29T22:51:26.808Z,20.10
2018-04-29T22:53:55.844Z,20.10
2018-04-29T22:56:23.670Z,20.00
2018-04-29T22:58:52.384Z,20.00
2018-04-29T23:01:20.110Z,20.00
2018-04-29T23:03:47.889Z,19.90
2018-04-29T23:06:15.762Z,19.80
2018-04-29T23:08:48.068Z,19.80
2018-04-29T23:11:15.945Z,19.80
2018-04-29T23:13:43.614Z,19.80
2018-04-29T23:16:11.359Z,19.80
2018-04-29T23:18:43.400Z,19.70
2018-04-29T23:21:11.438Z,19.60
2018-04-29T23:23:39.859Z,19.30
2018-04-29T23:26:07.482Z,19.30
2018-04-29T23:28:35.107Z,19.00
2018-04-29T23:31:02.798Z,18.90
2018-04-29T23:33:31.186Z,18.60
2018-04-29T23:35:59.571Z,18.60
2018-04-29T23:38:27.175Z,18.60
2018-04-29T23:40:54.839Z,18.50
2018-04-29T23:43:23.332Z,18.10
2018-04-29T23:45:51.776Z,17.80
2018-04-29T23:48:19.408Z,17.80
2018-04-29T23:50:47.079Z,17.80
2018-04-29T23:53:14.630Z,17.70
2018-04-29T23:55:43.020Z,17.70
2018-04-29T23:58:10.622Z,17.60
